sensor_id;sensor_type;location;lat;lon;timestamp;P1;durP1;ratioP1;P2;durP2;ratioP2
59024;SDS011;44806;48.008;13.666;2023-03-13T00:01:49;23.45;;;15.85;;
59024;SDS011;44806;48.008;13.666;2023-03-13T00:04:18;21.00;;;13.50;;
59024;SDS011;44806;48.008;13.666;2023-03-13T00:06:48;21.92;;;11.70;;
59024;SDS011;44806;48.008;13.666;2023-03-13T00:09:18;11.98;;;9.38;;
59024;SDS011;44806;48.008;13.666;2023-03-13T00:11:48;11.90;;;8.77;;
59024;SDS011;44806;48.008;13.666;2023-03-13T00:14:17;18.13;;;9.95;;
59024;SDS011;44806;48.008;13.666;2023-03-13T00:16:47;13.13;;;8.75;;
59024;SDS011;44806;48.008;13.666;2023-03-13T00:19:15;21.45;;;11.15;;
59024;SDS011;44806;48.008;13.666;2023-03-13T00:21:42;13.23;;;10.45;;
59024;SDS011;44806;48.008;13.666;2023-03-13T00:24:10;12.45;;;8.85;;
59024;SDS011;44806;48.008;13.666;2023-03-13T00:26:40;19.13;;;9.18;;
59024;SDS011;44806;48.008;13.666;2023-03-13T00:29:08;12.48;;;8.70;;
59024;SDS011;44806;48.008;13.666;2023-03-13T00:31:37;10.48;;;6.45;;
59024;SDS011;44806;48.008;13.666;2023-03-13T00:34:04;17.67;;;10.35;;
59024;SDS011;44806;48.008;13.666;2023-03-13T00:36:35;8.23;;;7.38;;
59024;SDS011;44806;48.008;13.666;2023-03-13T00:39:03;13.50;;;12.07;;
59024;SDS011;44806;48.008;13.666;2023-03-13T00:41:32;10.23;;;7.88;;
59024;SDS011;44806;48.008;13.666;2023-03-13T00:43:59;18.85;;;11.70;;
59024;SDS011;44806;48.008;13.666;2023-03-13T00:46:27;8.20;;;7.45;;
59024;SDS011;44806;48.008;13.666;2023-03-13T00:48:57;10.48;;;6.95;;
59024;SDS011;44806;48.008;13.666;2023-03-13T00:51:27;26.92;;;16.88;;
59024;SDS011;44806;48.008;13.666;2023-03-13T00:53:59;7.72;;;7.03;;
59024;SDS011;44806;48.008;13.666;2023-03-13T00:56:28;9.43;;;8.57;;
59024;SDS011;44806;48.008;13.666;2023-03-13T00:58:56;20.05;;;10.25;;
59024;SDS011;44806;48.008;13.666;2023-03-13T01:01:26;22.73;;;11.40;;
59024;SDS011;44806;48.008;13.666;2023-03-13T01:03:57;20.63;;;13.65;;
59024;SDS011;44806;48.008;13.666;2023-03-13T01:06:29;15.90;;;9.77;;
59024;SDS011;44806;48.008;13.666;2023-03-13T01:09:00;10.93;;;8.27;;
59024;SDS011;44806;48.008;13.666;2023-03-13T01:11:33;8.20;;;7.40;;
59024;SDS011;44806;48.008;13.666;2023-03-13T01:14:02;21.58;;;15.25;;
59024;SDS011;44806;48.008;13.666;2023-03-13T01:16:32;11.20;;;9.60;;
59024;SDS011;44806;48.008;13.666;2023-03-13T01:19:03;10.10;;;7.03;;
59024;SDS011;44806;48.008;13.666;2023-03-13T01:21:32;19.08;;;10.88;;
59024;SDS011;44806;48.008;13.666;2023-03-13T01:24:00;11.80;;;8.50;;
59024;SDS011;44806;48.008;13.666;2023-03-13T01:26:31;17.17;;;13.82;;
59024;SDS011;44806;48.008;13.666;2023-03-13T01:29:01;24.15;;;14.05;;
59024;SDS011;44806;48.008;13.666;2023-03-13T01:31:30;12.85;;;9.77;;
59024;SDS011;44806;48.008;13.666;2023-03-13T01:33:58;32.85;;;17.35;;
59024;SDS011;44806;48.008;13.666;2023-03-13T01:36:29;17.92;;;12.85;;
59024;SDS011;44806;48.008;13.666;2023-03-13T01:38:57;13.95;;;10.77;;
59024;SDS011;44806;48.008;13.666;2023-03-13T01:41:26;11.85;;;9.23;;
59024;SDS011;44806;48.008;13.666;2023-03-13T01:43:56;17.52;;;11.18;;
59024;SDS011;44806;48.008;13.666;2023-03-13T01:46:26;14.00;;;10.98;;
59024;SDS011;44806;48.008;13.666;2023-03-13T01:48:55;12.52;;;8.25;;
59024;SDS011;44806;48.008;13.666;2023-03-13T01:51:27;21.60;;;13.85;;
59024;SDS011;44806;48.008;13.666;2023-03-13T01:54:05;25.38;;;15.27;;
59024;SDS011;44806;48.008;13.666;2023-03-13T01:56:36;21.60;;;13.43;;
59024;SDS011;44806;48.008;13.666;2023-03-13T01:59:07;18.10;;;13.27;;
59024;SDS011;44806;48.008;13.666;2023-03-13T02:01:39;17.63;;;11.77;;
59024;SDS011;44806;48.008;13.666;2023-03-13T02:04:07;9.77;;;7.95;;
59024;SDS011;44806;48.008;13.666;2023-03-13T02:06:37;10.50;;;7.50;;
59024;SDS011;44806;48.008;13.666;2023-03-13T02:09:07;23.20;;;12.88;;
59024;SDS011;44806;48.008;13.666;2023-03-13T02:11:46;20.27;;;14.40;;
59024;SDS011;44806;48.008;13.666;2023-03-13T02:14:19;19.95;;;13.40;;
59024;SDS011;44806;48.008;13.666;2023-03-13T02:16:53;15.50;;;9.85;;
59024;SDS011;44806;48.008;13.666;2023-03-13T02:19:23;18.33;;;9.35;;
59024;SDS011;44806;48.008;13.666;2023-03-13T02:22:01;24.10;;;10.90;;
59024;SDS011;44806;48.008;13.666;2023-03-13T02:24:36;20.80;;;13.52;;
59024;SDS011;44806;48.008;13.666;2023-03-13T02:27:13;19.85;;;16.40;;
59024;SDS011;44806;48.008;13.666;2023-03-13T02:29:40;12.02;;;9.48;;
59024;SDS011;44806;48.008;13.666;2023-03-13T02:32:08;14.13;;;11.30;;
59024;SDS011;44806;48.008;13.666;2023-03-13T02:34:38;21.20;;;14.30;;
59024;SDS011;44806;48.008;13.666;2023-03-13T02:37:08;13.02;;;11.65;;
59024;SDS011;44806;48.008;13.666;2023-03-13T02:39:37;20.65;;;13.85;;
59024;SDS011;44806;48.008;13.666;2023-03-13T02:42:10;16.45;;;11.10;;
59024;SDS011;44806;48.008;13.666;2023-03-13T02:44:40;13.00;;;10.05;;
59024;SDS011;44806;48.008;13.666;2023-03-13T02:47:11;10.50;;;9.40;;
59024;SDS011;44806;48.008;13.666;2023-03-13T02:49:38;14.85;;;11.70;;
59024;SDS011;44806;48.008;13.666;2023-03-13T02:52:08;29.00;;;14.20;;
59024;SDS011;44806;48.008;13.666;2023-03-13T02:54:38;15.85;;;10.70;;
59024;SDS011;44806;48.008;13.666;2023-03-13T02:57:06;6.95;;;6.30;;
59024;SDS011;44806;48.008;13.666;2023-03-13T02:59:38;18.08;;;12.13;;
59024;SDS011;44806;48.008;13.666;2023-03-13T03:02:08;23.23;;;12.50;;
59024;SDS011;44806;48.008;13.666;2023-03-13T03:04:35;8.27;;;6.95;;
59024;SDS011;44806;48.008;13.666;2023-03-13T03:07:03;16.45;;;11.70;;
59024;SDS011;44806;48.008;13.666;2023-03-13T03:09:34;16.15;;;10.70;;
59024;SDS011;44806;48.008;13.666;2023-03-13T03:12:04;17.70;;;13.63;;
59024;SDS011;44806;48.008;13.666;2023-03-13T03:14:38;8.73;;;6.55;;
59024;SDS011;44806;48.008;13.666;2023-03-13T03:17:08;13.13;;;8.07;;
59024;SDS011;44806;48.008;13.666;2023-03-13T03:19:36;9.75;;;7.05;;
59024;SDS011;44806;48.008;13.666;2023-03-13T03:22:03;15.52;;;11.13;;
59024;SDS011;44806;48.008;13.666;2023-03-13T03:24:33;9.07;;;8.23;;
59024;SDS011;44806;48.008;13.666;2023-03-13T03:27:01;6.82;;;6.18;;
59024;SDS011;44806;48.008;13.666;2023-03-13T03:29:28;9.82;;;6.60;;
59024;SDS011;44806;48.008;13.666;2023-03-13T03:31:59;11.32;;;10.13;;
59024;SDS011;44806;48.008;13.666;2023-03-13T03:34:26;14.25;;;8.60;;
59024;SDS011;44806;48.008;13.666;2023-03-13T03:36:58;9.40;;;7.30;;
59024;SDS011;44806;48.008;13.666;2023-03-13T03:39:28;9.07;;;6.95;;
59024;SDS011;44806;48.008;13.666;2023-03-13T03:41:58;9.98;;;8.73;;
59024;SDS011;44806;48.008;13.666;2023-03-13T03:44:26;14.93;;;9.68;;
59024;SDS011;44806;48.008;13.666;2023-03-13T03:46:53;11.18;;;7.40;;
59024;SDS011;44806;48.008;13.666;2023-03-13T03:49:22;12.82;;;7.78;;
59024;SDS011;44806;48.008;13.666;2023-03-13T03:51:50;15.00;;;7.07;;
59024;SDS011;44806;48.008;13.666;2023-03-13T03:54:20;16.20;;;9.10;;
59024;SDS011;44806;48.008;13.666;2023-03-13T03:56:47;14.45;;;8.43;;
59024;SDS011;44806;48.008;13.666;2023-03-13T03:59:17;11.02;;;7.22;;
59024;SDS011;44806;48.008;13.666;2023-03-13T04:01:46;9.75;;;6.82;;
59024;SDS011;44806;48.008;13.666;2023-03-13T04:04:16;9.63;;;8.48;;
59024;SDS011;44806;48.008;13.666;2023-03-13T04:06:45;15.10;;;7.97;;
59024;SDS011;44806;48.008;13.666;2023-03-13T04:09:15;16.90;;;10.15;;
59024;SDS011;44806;48.008;13.666;2023-03-13T04:11:44;17.30;;;11.43;;
59024;SDS011;44806;48.008;13.666;2023-03-13T04:14:12;12.35;;;7.82;;
59024;SDS011;44806;48.008;13.666;2023-03-13T04:16:39;14.95;;;9.63;;
59024;SDS011;44806;48.008;13.666;2023-03-13T04:19:10;7.90;;;6.03;;
59024;SDS011;44806;48.008;13.666;2023-03-13T04:21:37;6.57;;;5.88;;
59024;SDS011;44806;48.008;13.666;2023-03-13T04:24:06;9.65;;;6.22;;
59024;SDS011;44806;48.008;13.666;2023-03-13T04:26:34;10.65;;;7.25;;
59024;SDS011;44806;48.008;13.666;2023-03-13T04:29:01;14.32;;;6.78;;
59024;SDS011;44806;48.008;13.666;2023-03-13T04:31:30;15.20;;;10.60;;
59024;SDS011;44806;48.008;13.666;2023-03-13T04:33:58;8.98;;;7.20;;
59024;SDS011;44806;48.008;13.666;2023-03-13T04:36:25;15.82;;;10.93;;
59024;SDS011;44806;48.008;13.666;2023-03-13T04:38:53;12.63;;;7.95;;
59024;SDS011;44806;48.008;13.666;2023-03-13T04:41:24;13.85;;;12.35;;
59024;SDS011;44806;48.008;13.666;2023-03-13T04:43:54;10.52;;;8.07;;
59024;SDS011;44806;48.008;13.666;2023-03-13T04:46:21;10.20;;;6.63;;
59024;SDS011;44806;48.008;13.666;2023-03-13T04:48:51;9.30;;;7.70;;
59024;SDS011;44806;48.008;13.666;2023-03-13T04:51:19;13.93;;;11.88;;
59024;SDS011;44806;48.008;13.666;2023-03-13T04:53:46;12.65;;;9.75;;
59024;SDS011;44806;48.008;13.666;2023-03-13T04:56:19;13.48;;;11.25;;
59024;SDS011;44806;48.008;13.666;2023-03-13T04:58:49;12.73;;;8.55;;
59024;SDS011;44806;48.008;13.666;2023-03-13T05:01:17;11.68;;;7.97;;
59024;SDS011;44806;48.008;13.666;2023-03-13T05:03:45;15.18;;;11.63;;
59024;SDS011;44806;48.008;13.666;2023-03-13T05:06:14;10.77;;;6.88;;
59024;SDS011;44806;48.008;13.666;2023-03-13T05:08:42;16.50;;;7.00;;
59024;SDS011;44806;48.008;13.666;2023-03-13T05:11:10;11.80;;;9.75;;
59024;SDS011;44806;48.008;13.666;2023-03-13T05:13:40;14.93;;;7.90;;
59024;SDS011;44806;48.008;13.666;2023-03-13T05:16:08;9.43;;;5.88;;
59024;SDS011;44806;48.008;13.666;2023-03-13T05:18:38;13.32;;;8.30;;
59024;SDS011;44806;48.008;13.666;2023-03-13T05:21:05;14.15;;;8.13;;
59024;SDS011;44806;48.008;13.666;2023-03-13T05:23:33;8.90;;;7.13;;
59024;SDS011;44806;48.008;13.666;2023-03-13T05:26:00;12.93;;;6.63;;
59024;SDS011;44806;48.008;13.666;2023-03-13T05:28:28;7.55;;;5.70;;
59024;SDS011;44806;48.008;13.666;2023-03-13T05:30:55;11.45;;;8.95;;
59024;SDS011;44806;48.008;13.666;2023-03-13T05:33:25;8.35;;;6.63;;
59024;SDS011;44806;48.008;13.666;2023-03-13T05:35:55;12.52;;;6.80;;
59024;SDS011;44806;48.008;13.666;2023-03-13T05:38:25;7.82;;;6.35;;
59024;SDS011;44806;48.008;13.666;2023-03-13T05:40:54;15.27;;;7.60;;
59024;SDS011;44806;48.008;13.666;2023-03-13T05:43:22;17.15;;;10.13;;
59024;SDS011;44806;48.008;13.666;2023-03-13T05:45:49;23.13;;;12.02;;
59024;SDS011;44806;48.008;13.666;2023-03-13T05:48:17;18.63;;;9.15;;
59024;SDS011;44806;48.008;13.666;2023-03-13T05:50:45;13.30;;;10.52;;
59024;SDS011;44806;48.008;13.666;2023-03-13T05:53:13;14.55;;;7.38;;
59024;SDS011;44806;48.008;13.666;2023-03-13T05:55:42;11.27;;;5.85;;
59024;SDS011;44806;48.008;13.666;2023-03-13T05:58:10;16.42;;;12.30;;
59024;SDS011;44806;48.008;13.666;2023-03-13T06:00:38;15.18;;;7.68;;
59024;SDS011;44806;48.008;13.666;2023-03-13T06:03:05;12.60;;;7.32;;
59024;SDS011;44806;48.008;13.666;2023-03-13T06:05:35;23.40;;;11.38;;
59024;SDS011;44806;48.008;13.666;2023-03-13T06:08:04;14.13;;;6.68;;
59024;SDS011;44806;48.008;13.666;2023-03-13T06:10:32;17.58;;;8.23;;
59024;SDS011;44806;48.008;13.666;2023-03-13T06:12:59;9.40;;;6.18;;
59024;SDS011;44806;48.008;13.666;2023-03-13T06:15:26;18.40;;;10.30;;
59024;SDS011;44806;48.008;13.666;2023-03-13T06:17:54;18.88;;;12.25;;
59024;SDS011;44806;48.008;13.666;2023-03-13T06:20:21;19.17;;;12.45;;
59024;SDS011;44806;48.008;13.666;2023-03-13T06:22:49;14.32;;;7.55;;
59024;SDS011;44806;48.008;13.666;2023-03-13T06:25:20;17.13;;;11.18;;
59024;SDS011;44806;48.008;13.666;2023-03-13T06:27:50;18.27;;;8.43;;
59024;SDS011;44806;48.008;13.666;2023-03-13T06:30:18;21.45;;;8.60;;
59024;SDS011;44806;48.008;13.666;2023-03-13T06:32:49;16.40;;;7.53;;
59024;SDS011;44806;48.008;13.666;2023-03-13T06:35:16;15.02;;;6.95;;
59024;SDS011;44806;48.008;13.666;2023-03-13T06:37:44;10.52;;;6.55;;
59024;SDS011;44806;48.008;13.666;2023-03-13T06:40:11;9.07;;;5.95;;
59024;SDS011;44806;48.008;13.666;2023-03-13T06:42:40;26.25;;;9.07;;
59024;SDS011;44806;48.008;13.666;2023-03-13T06:45:10;14.85;;;10.90;;
59024;SDS011;44806;48.008;13.666;2023-03-13T06:47:44;10.95;;;7.05;;
59024;SDS011;44806;48.008;13.666;2023-03-13T06:50:12;13.35;;;8.02;;
59024;SDS011;44806;48.008;13.666;2023-03-13T06:52:39;11.05;;;6.18;;
59024;SDS011;44806;48.008;13.666;2023-03-13T06:55:07;17.90;;;9.20;;
59024;SDS011;44806;48.008;13.666;2023-03-13T06:57:36;20.23;;;12.45;;
59024;SDS011;44806;48.008;13.666;2023-03-13T07:00:05;11.32;;;8.95;;
59024;SDS011;44806;48.008;13.666;2023-03-13T07:02:35;13.40;;;8.32;;
59024;SDS011;44806;48.008;13.666;2023-03-13T07:05:03;19.60;;;8.43;;
59024;SDS011;44806;48.008;13.666;2023-03-13T07:07:32;15.93;;;10.75;;
59024;SDS011;44806;48.008;13.666;2023-03-13T07:10:01;26.95;;;8.93;;
59024;SDS011;44806;48.008;13.666;2023-03-13T07:12:29;20.27;;;13.50;;
59024;SDS011;44806;48.008;13.666;2023-03-13T07:14:59;22.50;;;11.60;;
59024;SDS011;44806;48.008;13.666;2023-03-13T07:17:28;16.98;;;10.85;;
59024;SDS011;44806;48.008;13.666;2023-03-13T07:19:56;30.58;;;15.50;;
59024;SDS011;44806;48.008;13.666;2023-03-13T07:22:26;20.08;;;12.57;;
59024;SDS011;44806;48.008;13.666;2023-03-13T07:24:54;16.70;;;11.27;;
59024;SDS011;44806;48.008;13.666;2023-03-13T07:27:21;18.88;;;12.57;;
59024;SDS011;44806;48.008;13.666;2023-03-13T07:29:49;11.20;;;8.80;;
59024;SDS011;44806;48.008;13.666;2023-03-13T07:32:16;32.00;;;18.60;;
59024;SDS011;44806;48.008;13.666;2023-03-13T07:34:45;18.02;;;8.68;;
59024;SDS011;44806;48.008;13.666;2023-03-13T07:37:15;15.68;;;10.43;;
59024;SDS011;44806;48.008;13.666;2023-03-13T07:39:45;24.20;;;15.63;;
59024;SDS011;44806;48.008;13.666;2023-03-13T07:42:15;20.23;;;12.63;;
59024;SDS011;44806;48.008;13.666;2023-03-13T07:44:42;18.63;;;9.73;;
59024;SDS011;44806;48.008;13.666;2023-03-13T07:47:10;14.55;;;11.05;;
59024;SDS011;44806;48.008;13.666;2023-03-13T07:49:38;19.40;;;13.05;;
59024;SDS011;44806;48.008;13.666;2023-03-13T07:52:11;21.70;;;13.23;;
59024;SDS011;44806;48.008;13.666;2023-03-13T07:54:42;15.48;;;10.77;;
59024;SDS011;44806;48.008;13.666;2023-03-13T07:57:09;15.90;;;11.40;;
59024;SDS011;44806;48.008;13.666;2023-03-13T07:59:37;21.85;;;15.40;;
59024;SDS011;44806;48.008;13.666;2023-03-13T08:02:05;15.45;;;11.40;;
59024;SDS011;44806;48.008;13.666;2023-03-13T08:04:34;17.25;;;11.32;;
59024;SDS011;44806;48.008;13.666;2023-03-13T08:07:01;29.50;;;16.20;;
59024;SDS011;44806;48.008;13.666;2023-03-13T08:09:32;19.98;;;14.45;;
59024;SDS011;44806;48.008;13.666;2023-03-13T08:12:00;16.75;;;11.40;;
59024;SDS011;44806;48.008;13.666;2023-03-13T08:14:28;11.23;;;9.48;;
59024;SDS011;44806;48.008;13.666;2023-03-13T08:16:57;27.13;;;17.75;;
59024;SDS011;44806;48.008;13.666;2023-03-13T08:19:24;14.30;;;9.90;;
59024;SDS011;44806;48.008;13.666;2023-03-13T08:21:52;18.92;;;12.48;;
59024;SDS011;44806;48.008;13.666;2023-03-13T08:24:21;24.92;;;14.13;;
59024;SDS011;44806;48.008;13.666;2023-03-13T08:26:50;23.95;;;15.00;;
59024;SDS011;44806;48.008;13.666;2023-03-13T08:29:18;20.70;;;12.57;;
59024;SDS011;44806;48.008;13.666;2023-03-13T08:31:46;20.23;;;14.15;;
59024;SDS011;44806;48.008;13.666;2023-03-13T08:34:17;42.78;;;20.80;;
59024;SDS011;44806;48.008;13.666;2023-03-13T08:36:44;17.92;;;12.50;;
59024;SDS011;44806;48.008;13.666;2023-03-13T08:39:13;35.78;;;20.35;;
59024;SDS011;44806;48.008;13.666;2023-03-13T08:41:42;16.90;;;11.88;;
59024;SDS011;44806;48.008;13.666;2023-03-13T08:44:11;42.60;;;21.63;;
59024;SDS011;44806;48.008;13.666;2023-03-13T08:46:41;26.08;;;16.40;;
59024;SDS011;44806;48.008;13.666;2023-03-13T08:49:09;18.45;;;13.68;;
59024;SDS011;44806;48.008;13.666;2023-03-13T08:51:38;15.88;;;9.95;;
59024;SDS011;44806;48.008;13.666;2023-03-13T08:54:05;21.13;;;15.55;;
59024;SDS011;44806;48.008;13.666;2023-03-13T08:56:36;21.30;;;15.60;;
59024;SDS011;44806;48.008;13.666;2023-03-13T08:59:08;23.25;;;16.25;;
59024;SDS011;44806;48.008;13.666;2023-03-13T09:01:39;19.17;;;14.23;;
59024;SDS011;44806;48.008;13.666;2023-03-13T09:04:07;22.30;;;13.52;;
59024;SDS011;44806;48.008;13.666;2023-03-13T09:06:37;17.30;;;14.95;;
59024;SDS011;44806;48.008;13.666;2023-03-13T09:09:08;10.77;;;9.73;;
59024;SDS011;44806;48.008;13.666;2023-03-13T09:11:37;25.80;;;16.63;;
59024;SDS011;44806;48.008;13.666;2023-03-13T09:14:11;31.70;;;18.17;;
59024;SDS011;44806;48.008;13.666;2023-03-13T09:16:39;17.42;;;12.57;;
59024;SDS011;44806;48.008;13.666;2023-03-13T09:19:10;11.23;;;9.93;;
59024;SDS011;44806;48.008;13.666;2023-03-13T09:21:40;22.88;;;17.77;;
59024;SDS011;44806;48.008;13.666;2023-03-13T09:24:08;26.98;;;17.58;;
59024;SDS011;44806;48.008;13.666;2023-03-13T09:26:40;41.20;;;22.25;;
59024;SDS011;44806;48.008;13.666;2023-03-13T09:29:08;21.30;;;13.02;;
59024;SDS011;44806;48.008;13.666;2023-03-13T09:31:37;36.35;;;20.15;;
59024;SDS011;44806;48.008;13.666;2023-03-13T09:34:06;30.35;;;19.00;;
59024;SDS011;44806;48.008;13.666;2023-03-13T09:36:34;21.98;;;12.00;;
59024;SDS011;44806;48.008;13.666;2023-03-13T09:39:01;23.02;;;13.65;;
59024;SDS011;44806;48.008;13.666;2023-03-13T09:41:33;20.73;;;15.18;;
59024;SDS011;44806;48.008;13.666;2023-03-13T09:44:06;30.05;;;20.95;;
59024;SDS011;44806;48.008;13.666;2023-03-13T09:46:43;33.35;;;19.90;;
59024;SDS011;44806;48.008;13.666;2023-03-13T09:49:19;16.20;;;10.82;;
59024;SDS011;44806;48.008;13.666;2023-03-13T09:51:57;38.30;;;24.02;;
59024;SDS011;44806;48.008;13.666;2023-03-13T09:54:33;20.92;;;13.95;;
59024;SDS011;44806;48.008;13.666;2023-03-13T09:57:05;29.77;;;19.42;;
59024;SDS011;44806;48.008;13.666;2023-03-13T09:59:42;46.25;;;24.83;;
59024;SDS011;44806;48.008;13.666;2023-03-13T10:02:27;41.58;;;19.63;;
59024;SDS011;44806;48.008;13.666;2023-03-13T10:04:59;32.00;;;20.08;;
59024;SDS011;44806;48.008;13.666;2023-03-13T10:07:35;19.88;;;12.85;;
59024;SDS011;44806;48.008;13.666;2023-03-13T10:10:12;44.83;;;22.40;;
59024;SDS011;44806;48.008;13.666;2023-03-13T10:12:43;30.33;;;17.90;;
59024;SDS011;44806;48.008;13.666;2023-03-13T10:15:19;16.35;;;12.95;;
59024;SDS011;44806;48.008;13.666;2023-03-13T10:17:58;20.45;;;17.67;;
59024;SDS011;44806;48.008;13.666;2023-03-13T10:20:28;16.52;;;10.68;;
59024;SDS011;44806;48.008;13.666;2023-03-13T10:23:01;35.05;;;22.80;;
59024;SDS011;44806;48.008;13.666;2023-03-13T10:25:38;18.30;;;13.65;;
59024;SDS011;44806;48.008;13.666;2023-03-13T10:28:09;33.03;;;19.33;;
59024;SDS011;44806;48.008;13.666;2023-03-13T10:30:43;40.17;;;22.70;;
59024;SDS011;44806;48.008;13.666;2023-03-13T10:33:17;29.13;;;19.17;;
59024;SDS011;44806;48.008;13.666;2023-03-13T10:35:58;20.17;;;14.68;;
59024;SDS011;44806;48.008;13.666;2023-03-13T10:38:44;17.15;;;8.80;;
59024;SDS011;44806;48.008;13.666;2023-03-13T10:41:18;15.75;;;10.70;;
59024;SDS011;44806;48.008;13.666;2023-03-13T10:43:51;17.90;;;11.70;;
59024;SDS011;44806;48.008;13.666;2023-03-13T10:46:26;24.27;;;10.95;;
59024;SDS011;44806;48.008;13.666;2023-03-13T10:51:29;42.47;;;20.50;;
59024;SDS011;44806;48.008;13.666;2023-03-13T10:54:06;17.25;;;10.40;;
59024;SDS011;44806;48.008;13.666;2023-03-13T10:56:40;15.80;;;9.48;;
59024;SDS011;44806;48.008;13.666;2023-03-13T10:59:19;10.18;;;9.18;;
59024;SDS011;44806;48.008;13.666;2023-03-13T11:01:52;48.50;;;24.38;;
59024;SDS011;44806;48.008;13.666;2023-03-13T11:04:28;18.95;;;13.20;;
59024;SDS011;44806;48.008;13.666;2023-03-13T11:07:00;19.73;;;13.40;;
59024;SDS011;44806;48.008;13.666;2023-03-13T11:09:31;41.17;;;20.42;;
59024;SDS011;44806;48.008;13.666;2023-03-13T11:12:01;13.10;;;9.38;;
59024;SDS011;44806;48.008;13.666;2023-03-13T11:14:30;67.10;;;28.30;;
59024;SDS011;44806;48.008;13.666;2023-03-13T11:17:08;59.97;;;26.15;;
59024;SDS011;44806;48.008;13.666;2023-03-13T11:19:52;63.58;;;26.23;;
59024;SDS011;44806;48.008;13.666;2023-03-13T11:22:29;18.27;;;13.00;;
59024;SDS011;44806;48.008;13.666;2023-03-13T11:25:14;57.55;;;25.55;;
59024;SDS011;44806;48.008;13.666;2023-03-13T11:27:48;29.98;;;23.10;;
59024;SDS011;44806;48.008;13.666;2023-03-13T11:30:41;28.17;;;17.67;;
59024;SDS011;44806;48.008;13.666;2023-03-13T11:33:23;41.88;;;24.60;;
59024;SDS011;44806;48.008;13.666;2023-03-13T11:35:59;26.60;;;18.92;;
59024;SDS011;44806;48.008;13.666;2023-03-13T11:38:30;38.45;;;22.40;;
59024;SDS011;44806;48.008;13.666;2023-03-13T11:41:16;109.88;;;54.40;;
59024;SDS011;44806;48.008;13.666;2023-03-13T11:46:48;150.55;;;71.43;;
59024;SDS011;44806;48.008;13.666;2023-03-13T11:49:30;104.28;;;60.38;;
59024;SDS011;44806;48.008;13.666;2023-03-13T11:52:24;103.88;;;53.25;;
59024;SDS011;44806;48.008;13.666;2023-03-13T11:55:27;135.15;;;70.10;;
59024;SDS011;44806;48.008;13.666;2023-03-13T11:58:05;123.15;;;70.50;;
59024;SDS011;44806;48.008;13.666;2023-03-13T12:00:46;134.27;;;67.55;;
59024;SDS011;44806;48.008;13.666;2023-03-13T12:03:21;139.95;;;75.38;;
59024;SDS011;44806;48.008;13.666;2023-03-13T12:06:01;139.77;;;73.78;;
59024;SDS011;44806;48.008;13.666;2023-03-13T12:08:32;127.45;;;79.57;;
59024;SDS011;44806;48.008;13.666;2023-03-13T12:11:08;131.85;;;70.15;;
59024;SDS011;44806;48.008;13.666;2023-03-13T12:13:45;118.13;;;71.75;;
59024;SDS011;44806;48.008;13.666;2023-03-13T12:16:22;97.18;;;58.58;;
59024;SDS011;44806;48.008;13.666;2023-03-13T12:18:54;111.55;;;66.78;;
59024;SDS011;44806;48.008;13.666;2023-03-13T12:21:26;105.57;;;64.65;;
59024;SDS011;44806;48.008;13.666;2023-03-13T12:23:59;113.20;;;69.50;;
59024;SDS011;44806;48.008;13.666;2023-03-13T12:26:34;78.72;;;27.08;;
59024;SDS011;44806;48.008;13.666;2023-03-13T12:29:10;116.82;;;69.28;;
59024;SDS011;44806;48.008;13.666;2023-03-13T12:31:41;90.03;;;41.40;;
59024;SDS011;44806;48.008;13.666;2023-03-13T12:34:15;50.65;;;25.30;;
59024;SDS011;44806;48.008;13.666;2023-03-13T12:36:51;130.35;;;70.03;;
59024;SDS011;44806;48.008;13.666;2023-03-13T12:39:28;115.07;;;58.28;;
59024;SDS011;44806;48.008;13.666;2023-03-13T12:42:11;140.82;;;76.78;;
59024;SDS011;44806;48.008;13.666;2023-03-13T12:44:45;43.63;;;29.23;;
59024;SDS011;44806;48.008;13.666;2023-03-13T12:47:16;50.75;;;33.97;;
59024;SDS011;44806;48.008;13.666;2023-03-13T12:49:55;29.02;;;20.05;;
59024;SDS011;44806;48.008;13.666;2023-03-13T12:52:45;70.43;;;33.17;;
59024;SDS011;44806;48.008;13.666;2023-03-13T12:55:37;53.40;;;21.48;;
59024;SDS011;44806;48.008;13.666;2023-03-13T12:58:37;39.65;;;23.73;;
59024;SDS011;44806;48.008;13.666;2023-03-13T13:01:12;145.60;;;79.07;;
59024;SDS011;44806;48.008;13.666;2023-03-13T13:03:51;126.28;;;74.25;;
59024;SDS011;44806;48.008;13.666;2023-03-13T13:06:21;45.53;;;23.75;;
59024;SDS011;44806;48.008;13.666;2023-03-13T13:09:07;135.65;;;76.97;;
59024;SDS011;44806;48.008;13.666;2023-03-13T13:11:48;78.65;;;31.42;;
59024;SDS011;44806;48.008;13.666;2023-03-13T13:20:40;81.03;;;38.40;;
59024;SDS011;44806;48.008;13.666;2023-03-13T13:32:44;38.35;;;17.98;;
59024;SDS011;44806;48.008;13.666;2023-03-13T13:41:01;64.00;;;27.40;;
59024;SDS011;44806;48.008;13.666;2023-03-13T13:43:33;46.58;;;22.08;;
59024;SDS011;44806;48.008;13.666;2023-03-13T13:46:15;94.18;;;43.60;;
59024;SDS011;44806;48.008;13.666;2023-03-13T13:51:42;37.17;;;18.75;;
59024;SDS011;44806;48.008;13.666;2023-03-13T13:54:54;44.95;;;21.10;;
59024;SDS011;44806;48.008;13.666;2023-03-13T13:57:28;56.75;;;30.33;;
59024;SDS011;44806;48.008;13.666;2023-03-13T14:00:13;95.05;;;43.13;;
59024;SDS011;44806;48.008;13.666;2023-03-13T14:02:48;56.72;;;26.98;;
59024;SDS011;44806;48.008;13.666;2023-03-13T14:05:19;84.43;;;41.55;;
59024;SDS011;44806;48.008;13.666;2023-03-13T14:07:56;92.22;;;72.25;;
59024;SDS011;44806;48.008;13.666;2023-03-13T14:10:36;76.03;;;35.78;;
59024;SDS011;44806;48.008;13.666;2023-03-13T14:13:14;41.95;;;24.67;;
59024;SDS011;44806;48.008;13.666;2023-03-13T14:15:44;41.40;;;25.88;;
59024;SDS011;44806;48.008;13.666;2023-03-13T14:18:20;85.40;;;33.97;;
59024;SDS011;44806;48.008;13.666;2023-03-13T14:20:53;65.07;;;28.85;;
59024;SDS011;44806;48.008;13.666;2023-03-13T14:23:33;80.85;;;35.17;;
59024;SDS011;44806;48.008;13.666;2023-03-13T14:26:11;31.08;;;20.02;;
59024;SDS011;44806;48.008;13.666;2023-03-13T14:28:43;92.43;;;49.15;;
59024;SDS011;44806;48.008;13.666;2023-03-13T14:31:21;57.45;;;31.00;;
59024;SDS011;44806;48.008;13.666;2023-03-13T14:33:57;26.85;;;18.70;;
59024;SDS011;44806;48.008;13.666;2023-03-13T14:36:29;43.28;;;21.67;;
59024;SDS011;44806;48.008;13.666;2023-03-13T14:39:11;67.45;;;30.17;;
59024;SDS011;44806;48.008;13.666;2023-03-13T14:41:45;123.30;;;42.08;;
59024;SDS011;44806;48.008;13.666;2023-03-13T14:44:19;50.78;;;20.38;;
59024;SDS011;44806;48.008;13.666;2023-03-13T14:46:52;152.70;;;70.60;;
59024;SDS011;44806;48.008;13.666;2023-03-13T14:49:22;76.28;;;35.20;;
59024;SDS011;44806;48.008;13.666;2023-03-13T14:51:59;74.13;;;35.50;;
59024;SDS011;44806;48.008;13.666;2023-03-13T14:54:31;127.63;;;49.55;;
59024;SDS011;44806;48.008;13.666;2023-03-13T14:57:04;42.70;;;22.10;;
59024;SDS011;44806;48.008;13.666;2023-03-13T14:59:40;82.55;;;38.90;;
59024;SDS011;44806;48.008;13.666;2023-03-13T15:02:13;36.05;;;22.42;;
59024;SDS011;44806;48.008;13.666;2023-03-13T15:05:00;109.60;;;46.38;;
59024;SDS011;44806;48.008;13.666;2023-03-13T15:07:36;136.07;;;69.70;;
59024;SDS011;44806;48.008;13.666;2023-03-13T15:10:18;50.35;;;19.30;;